sensor_id;sensor_type;location;lat;lon;timestamp;P1;durP1;ratioP1;P2;durP2;ratioP2
6485;SDS011;3276;48.490;9.222;2023-08-12T00:01:02;5.17;;;4.33;;
6485;SDS011;3276;48.490;9.222;2023-08-12T00:03:28;7.63;;;4.70;;
6485;SDS011;3276;48.490;9.222;2023-08-12T00:05:54;7.67;;;4.17;;
6485;SDS011;3276;48.490;9.222;2023-08-12T00:08:21;6.80;;;3.40;;
6485;SDS011;3276;48.490;9.222;2023-08-12T00:10:47;4.73;;;4.20;;
6485;SDS011;3276;48.490;9.222;2023-08-12T00:13:12;5.43;;;3.57;;
6485;SDS011;3276;48.490;9.222;2023-08-12T00:15:42;4.50;;;3.80;;
6485;SDS011;3276;48.490;9.222;2023-08-12T00:18:08;5.77;;;4.47;;
6485;SDS011;3276;48.490;9.222;2023-08-12T00:20:34;4.70;;;3.70;;
6485;SDS011;3276;48.490;9.222;2023-08-12T00:23:00;4.47;;;3.40;;
6485;SDS011;3276;48.490;9.222;2023-08-12T00:25:25;5.37;;;3.40;;
6485;SDS011;3276;48.490;9.222;2023-08-12T00:27:51;6.70;;;5.20;;
6485;SDS011;3276;48.490;9.222;2023-08-12T00:30:17;7.00;;;4.13;;
6485;SDS011;3276;48.490;9.222;2023-08-12T00:32:42;5.13;;;3.40;;
6485;SDS011;3276;48.490;9.222;2023-08-12T00:35:08;5.30;;;4.23;;
6485;SDS011;3276;48.490;9.222;2023-08-12T00:37:34;7.50;;;4.10;;
6485;SDS011;3276;48.490;9.222;2023-08-12T00:39:59;4.90;;;3.77;;
6485;SDS011;3276;48.490;9.222;2023-08-12T00:42:25;5.00;;;3.90;;
6485;SDS011;3276;48.490;9.222;2023-08-12T00:44:50;5.30;;;3.90;;
6485;SDS011;3276;48.490;9.222;2023-08-12T00:47:16;4.53;;;3.83;;
6485;SDS011;3276;48.490;9.222;2023-08-12T00:49:42;4.77;;;4.13;;
6485;SDS011;3276;48.490;9.222;2023-08-12T00:52:10;4.33;;;3.63;;
6485;SDS011;3276;48.490;9.222;2023-08-12T00:54:37;5.90;;;3.30;;
6485;SDS011;3276;48.490;9.222;2023-08-12T00:57:03;5.77;;;4.30;;
6485;SDS011;3276;48.490;9.222;2023-08-12T00:59:29;4.30;;;3.90;;
6485;SDS011;3276;48.490;9.222;2023-08-12T01:01:54;4.53;;;3.73;;
6485;SDS011;3276;48.490;9.222;2023-08-12T01:04:20;5.50;;;5.00;;
6485;SDS011;3276;48.490;9.222;2023-08-12T01:06:45;4.80;;;4.30;;
6485;SDS011;3276;48.490;9.222;2023-08-12T01:09:11;6.63;;;3.37;;
6485;SDS011;3276;48.490;9.222;2023-08-12T01:14:27;6.33;;;3.73;;
6485;SDS011;3276;48.490;9.222;2023-08-12T01:16:59;5.70;;;4.10;;
6485;SDS011;3276;48.490;9.222;2023-08-12T01:19:37;5.30;;;3.80;;
6485;SDS011;3276;48.490;9.222;2023-08-12T01:22:05;6.40;;;4.07;;
6485;SDS011;3276;48.490;9.222;2023-08-12T01:24:33;5.03;;;3.97;;
6485;SDS011;3276;48.490;9.222;2023-08-12T01:27:02;5.23;;;4.23;;
6485;SDS011;3276;48.490;9.222;2023-08-12T01:29:28;5.07;;;4.20;;
6485;SDS011;3276;48.490;9.222;2023-08-12T01:31:55;4.60;;;4.00;;
6485;SDS011;3276;48.490;9.222;2023-08-12T01:34:39;4.13;;;3.60;;
6485;SDS011;3276;48.490;9.222;2023-08-12T01:37:17;8.10;;;3.87;;
6485;SDS011;3276;48.490;9.222;2023-08-12T01:39:50;6.30;;;4.20;;
6485;SDS011;3276;48.490;9.222;2023-08-12T01:42:18;5.43;;;4.23;;
6485;SDS011;3276;48.490;9.222;2023-08-12T01:44:45;5.83;;;4.30;;
6485;SDS011;3276;48.490;9.222;2023-08-12T01:47:11;7.03;;;4.03;;
6485;SDS011;3276;48.490;9.222;2023-08-12T01:49:36;9.03;;;4.53;;
6485;SDS011;3276;48.490;9.222;2023-08-12T01:52:02;4.70;;;3.97;;
6485;SDS011;3276;48.490;9.222;2023-08-12T01:54:28;7.57;;;4.30;;
6485;SDS011;3276;48.490;9.222;2023-08-12T01:56:59;4.97;;;3.93;;
6485;SDS011;3276;48.490;9.222;2023-08-12T01:59:26;5.67;;;3.93;;
6485;SDS011;3276;48.490;9.222;2023-08-12T02:01:52;4.47;;;3.50;;
6485;SDS011;3276;48.490;9.222;2023-08-12T02:04:17;5.70;;;5.00;;
6485;SDS011;3276;48.490;9.222;2023-08-12T02:06:43;6.77;;;4.27;;
6485;SDS011;3276;48.490;9.222;2023-08-12T02:09:09;5.50;;;3.90;;
6485;SDS011;3276;48.490;9.222;2023-08-12T02:11:34;11.07;;;4.60;;
6485;SDS011;3276;48.490;9.222;2023-08-12T02:14:00;5.00;;;4.30;;
6485;SDS011;3276;48.490;9.222;2023-08-12T02:16:25;3.93;;;3.50;;
6485;SDS011;3276;48.490;9.222;2023-08-12T02:18:51;3.13;;;2.67;;
6485;SDS011;3276;48.490;9.222;2023-08-12T02:21:16;5.23;;;4.50;;
6485;SDS011;3276;48.490;9.222;2023-08-12T02:23:42;7.00;;;4.40;;
6485;SDS011;3276;48.490;9.222;2023-08-12T02:26:09;3.53;;;3.23;;
6485;SDS011;3276;48.490;9.222;2023-08-12T02:28:34;5.17;;;3.60;;
6485;SDS011;3276;48.490;9.222;2023-08-12T02:31:00;3.80;;;3.20;;
6485;SDS011;3276;48.490;9.222;2023-08-12T02:33:26;4.50;;;3.80;;
6485;SDS011;3276;48.490;9.222;2023-08-12T02:35:52;5.37;;;3.60;;
6485;SDS011;3276;48.490;9.222;2023-08-12T02:38:19;5.13;;;3.17;;
6485;SDS011;3276;48.490;9.222;2023-08-12T02:40:49;6.30;;;4.10;;
6485;SDS011;3276;48.490;9.222;2023-08-12T02:43:15;4.50;;;3.80;;
6485;SDS011;3276;48.490;9.222;2023-08-12T02:45:41;5.10;;;3.23;;
6485;SDS011;3276;48.490;9.222;2023-08-12T02:48:06;6.30;;;4.20;;
6485;SDS011;3276;48.490;9.222;2023-08-12T02:50:33;5.40;;;4.23;;
6485;SDS011;3276;48.490;9.222;2023-08-12T02:52:58;4.67;;;4.17;;
6485;SDS011;3276;48.490;9.222;2023-08-12T02:55:24;6.73;;;4.20;;
6485;SDS011;3276;48.490;9.222;2023-08-12T02:57:49;5.43;;;4.10;;
6485;SDS011;3276;48.490;9.222;2023-08-12T03:00:15;6.10;;;4.60;;
6485;SDS011;3276;48.490;9.222;2023-08-12T03:02:43;5.47;;;4.10;;
6485;SDS011;3276;48.490;9.222;2023-08-12T03:05:09;4.70;;;4.23;;
6485;SDS011;3276;48.490;9.222;2023-08-12T03:07:35;4.67;;;4.27;;
6485;SDS011;3276;48.490;9.222;2023-08-12T03:10:00;4.00;;;3.20;;
6485;SDS011;3276;48.490;9.222;2023-08-12T03:12:26;5.53;;;4.27;;
6485;SDS011;3276;48.490;9.222;2023-08-12T03:14:52;6.60;;;4.70;;
6485;SDS011;3276;48.490;9.222;2023-08-12T03:17:17;4.33;;;3.70;;
6485;SDS011;3276;48.490;9.222;2023-08-12T03:19:43;6.80;;;4.53;;
6485;SDS011;3276;48.490;9.222;2023-08-12T03:22:08;4.67;;;3.77;;
6485;SDS011;3276;48.490;9.222;2023-08-12T03:24:34;8.50;;;4.33;;
6485;SDS011;3276;48.490;9.222;2023-08-12T03:26:59;7.10;;;4.90;;
6485;SDS011;3276;48.490;9.222;2023-08-12T03:29:25;5.53;;;4.40;;
6485;SDS011;3276;48.490;9.222;2023-08-12T03:31:51;3.63;;;2.90;;
6485;SDS011;3276;48.490;9.222;2023-08-12T03:34:16;4.77;;;4.27;;
6485;SDS011;3276;48.490;9.222;2023-08-12T03:36:42;5.70;;;4.57;;
6485;SDS011;3276;48.490;9.222;2023-08-12T03:39:07;6.97;;;4.63;;
6485;SDS011;3276;48.490;9.222;2023-08-12T03:41:33;6.00;;;3.73;;
6485;SDS011;3276;48.490;9.222;2023-08-12T03:43:58;5.17;;;4.67;;
6485;SDS011;3276;48.490;9.222;2023-08-12T03:46:24;6.00;;;4.70;;
6485;SDS011;3276;48.490;9.222;2023-08-12T03:48:50;6.30;;;4.60;;
6485;SDS011;3276;48.490;9.222;2023-08-12T03:51:15;4.53;;;4.13;;
6485;SDS011;3276;48.490;9.222;2023-08-12T03:53:41;6.90;;;4.53;;
6485;SDS011;3276;48.490;9.222;2023-08-12T03:56:07;6.77;;;5.17;;
6485;SDS011;3276;48.490;9.222;2023-08-12T03:58:32;6.10;;;5.20;;
6485;SDS011;3276;48.490;9.222;2023-08-12T04:00:58;6.07;;;5.10;;
6485;SDS011;3276;48.490;9.222;2023-08-12T04:03:24;8.30;;;4.80;;
6485;SDS011;3276;48.490;9.222;2023-08-12T04:05:50;5.63;;;4.87;;
6485;SDS011;3276;48.490;9.222;2023-08-12T04:08:17;6.10;;;4.53;;
6485;SDS011;3276;48.490;9.222;2023-08-12T04:10:45;6.70;;;5.17;;
6485;SDS011;3276;48.490;9.222;2023-08-12T04:13:12;5.40;;;4.70;;
6485;SDS011;3276;48.490;9.222;2023-08-12T04:15:39;5.30;;;4.60;;
6485;SDS011;3276;48.490;9.222;2023-08-12T04:18:04;5.70;;;3.67;;
6485;SDS011;3276;48.490;9.222;2023-08-12T04:20:30;5.03;;;4.53;;
6485;SDS011;3276;48.490;9.222;2023-08-12T04:22:55;5.07;;;3.70;;
6485;SDS011;3276;48.490;9.222;2023-08-12T04:25:21;7.00;;;4.33;;
6485;SDS011;3276;48.490;9.222;2023-08-12T04:27:47;4.37;;;3.33;;
6485;SDS011;3276;48.490;9.222;2023-08-12T04:30:15;5.93;;;4.20;;
6485;SDS011;3276;48.490;9.222;2023-08-12T04:32:41;4.80;;;3.97;;
6485;SDS011;3276;48.490;9.222;2023-08-12T04:35:07;6.43;;;3.80;;
6485;SDS011;3276;48.490;9.222;2023-08-12T04:37:35;5.20;;;4.40;;
6485;SDS011;3276;48.490;9.222;2023-08-12T04:40:01;6.00;;;3.83;;
6485;SDS011;3276;48.490;9.222;2023-08-12T04:42:29;6.23;;;4.40;;
6485;SDS011;3276;48.490;9.222;2023-08-12T04:44:55;5.10;;;4.47;;
6485;SDS011;3276;48.490;9.222;2023-08-12T04:47:20;4.37;;;3.20;;
6485;SDS011;3276;48.490;9.222;2023-08-12T04:49:46;7.40;;;4.57;;
6485;SDS011;3276;48.490;9.222;2023-08-12T04:52:12;5.63;;;3.93;;
6485;SDS011;3276;48.490;9.222;2023-08-12T04:54:37;6.93;;;4.17;;
6485;SDS011;3276;48.490;9.222;2023-08-12T04:57:03;6.60;;;4.00;;
6485;SDS011;3276;48.490;9.222;2023-08-12T04:59:28;5.60;;;4.47;;
6485;SDS011;3276;48.490;9.222;2023-08-12T05:01:54;4.93;;;4.30;;
6485;SDS011;3276;48.490;9.222;2023-08-12T05:04:19;5.20;;;4.70;;
6485;SDS011;3276;48.490;9.222;2023-08-12T05:06:45;5.90;;;4.00;;
6485;SDS011;3276;48.490;9.222;2023-08-12T05:09:11;7.37;;;4.00;;
6485;SDS011;3276;48.490;9.222;2023-08-12T05:11:36;5.17;;;4.33;;
6485;SDS011;3276;48.490;9.222;2023-08-12T05:14:02;4.60;;;4.07;;
6485;SDS011;3276;48.490;9.222;2023-08-12T05:16:27;4.67;;;4.17;;
6485;SDS011;3276;48.490;9.222;2023-08-12T05:18:54;7.80;;;4.20;;
6485;SDS011;3276;48.490;9.222;2023-08-12T05:21:19;4.87;;;4.10;;
6485;SDS011;3276;48.490;9.222;2023-08-12T05:23:45;5.53;;;3.67;;
6485;SDS011;3276;48.490;9.222;2023-08-12T05:26:11;6.70;;;4.53;;
6485;SDS011;3276;48.490;9.222;2023-08-12T05:28:38;6.23;;;4.30;;
6485;SDS011;3276;48.490;9.222;2023-08-12T05:31:03;6.23;;;4.20;;
6485;SDS011;3276;48.490;9.222;2023-08-12T05:33:29;4.63;;;3.60;;
6485;SDS011;3276;48.490;9.222;2023-08-12T05:35:54;6.50;;;4.67;;
6485;SDS011;3276;48.490;9.222;2023-08-12T05:38:20;6.27;;;4.07;;
6485;SDS011;3276;48.490;9.222;2023-08-12T05:40:45;5.03;;;4.43;;
6485;SDS011;3276;48.490;9.222;2023-08-12T05:43:11;5.40;;;4.43;;
6485;SDS011;3276;48.490;9.222;2023-08-12T05:45:36;4.73;;;3.10;;
6485;SDS011;3276;48.490;9.222;2023-08-12T05:48:02;4.37;;;3.93;;
6485;SDS011;3276;48.490;9.222;2023-08-12T05:50:28;4.30;;;3.47;;
6485;SDS011;3276;48.490;9.222;2023-08-12T05:52:53;6.53;;;3.50;;
6485;SDS011;3276;48.490;9.222;2023-08-12T05:55:19;4.60;;;3.60;;
6485;SDS011;3276;48.490;9.222;2023-08-12T05:57:45;5.57;;;4.40;;
6485;SDS011;3276;48.490;9.222;2023-08-12T06:00:10;5.70;;;4.70;;
6485;SDS011;3276;48.490;9.222;2023-08-12T06:02:36;5.30;;;4.67;;
6485;SDS011;3276;48.490;9.222;2023-08-12T06:05:02;6.30;;;3.70;;
6485;SDS011;3276;48.490;9.222;2023-08-12T06:07:27;5.07;;;4.17;;
6485;SDS011;3276;48.490;9.222;2023-08-12T06:09:53;4.73;;;3.63;;
6485;SDS011;3276;48.490;9.222;2023-08-12T06:12:19;5.03;;;3.90;;
6485;SDS011;3276;48.490;9.222;2023-08-12T06:14:44;4.10;;;3.50;;
6485;SDS011;3276;48.490;9.222;2023-08-12T06:17:10;5.57;;;3.70;;
6485;SDS011;3276;48.490;9.222;2023-08-12T06:19:35;5.23;;;4.70;;
6485;SDS011;3276;48.490;9.222;2023-08-12T06:22:01;3.70;;;3.40;;
6485;SDS011;3276;48.490;9.222;2023-08-12T06:24:26;4.90;;;4.50;;
6485;SDS011;3276;48.490;9.222;2023-08-12T06:26:52;5.03;;;4.20;;
6485;SDS011;3276;48.490;9.222;2023-08-12T06:29:17;4.30;;;3.53;;
6485;SDS011;3276;48.490;9.222;2023-08-12T06:31:43;6.00;;;4.40;;
6485;SDS011;3276;48.490;9.222;2023-08-12T06:34:08;5.20;;;4.20;;
6485;SDS011;3276;48.490;9.222;2023-08-12T06:36:39;5.80;;;4.87;;
6485;SDS011;3276;48.490;9.222;2023-08-12T06:39:05;7.83;;;5.50;;
6485;SDS011;3276;48.490;9.222;2023-08-12T06:41:30;5.50;;;5.07;;
6485;SDS011;3276;48.490;9.222;2023-08-12T06:43:56;5.33;;;4.93;;
6485;SDS011;3276;48.490;9.222;2023-08-12T06:46:22;9.13;;;5.83;;
6485;SDS011;3276;48.490;9.222;2023-08-12T06:48:47;6.57;;;5.87;;
6485;SDS011;3276;48.490;9.222;2023-08-12T06:51:13;6.10;;;5.50;;
6485;SDS011;3276;48.490;9.222;2023-08-12T06:53:39;5.70;;;5.20;;
6485;SDS011;3276;48.490;9.222;2023-08-12T06:56:05;7.80;;;5.60;;
6485;SDS011;3276;48.490;9.222;2023-08-12T06:58:31;6.33;;;5.73;;
6485;SDS011;3276;48.490;9.222;2023-08-12T07:00:57;7.80;;;5.10;;
6485;SDS011;3276;48.490;9.222;2023-08-12T07:03:24;6.60;;;5.30;;
6485;SDS011;3276;48.490;9.222;2023-08-12T07:05:49;7.27;;;6.53;;
6485;SDS011;3276;48.490;9.222;2023-08-12T07:08:15;5.20;;;4.80;;
6485;SDS011;3276;48.490;9.222;2023-08-12T07:10:41;5.07;;;4.67;;
6485;SDS011;3276;48.490;9.222;2023-08-12T07:13:07;6.03;;;5.53;;
6485;SDS011;3276;48.490;9.222;2023-08-12T07:15:33;5.30;;;4.80;;
6485;SDS011;3276;48.490;9.222;2023-08-12T07:17:58;5.90;;;5.30;;
6485;SDS011;3276;48.490;9.222;2023-08-12T07:20:24;5.73;;;5.13;;
6485;SDS011;3276;48.490;9.222;2023-08-12T07:22:50;5.33;;;4.93;;
6485;SDS011;3276;48.490;9.222;2023-08-12T07:25:15;7.00;;;6.30;;
6485;SDS011;3276;48.490;9.222;2023-08-12T07:27:42;5.17;;;4.77;;
6485;SDS011;3276;48.490;9.222;2023-08-12T07:30:08;6.10;;;5.03;;
6485;SDS011;3276;48.490;9.222;2023-08-12T07:32:35;5.37;;;4.73;;
6485;SDS011;3276;48.490;9.222;2023-08-12T07:35:02;6.93;;;5.60;;
6485;SDS011;3276;48.490;9.222;2023-08-12T07:37:28;6.10;;;5.50;;
6485;SDS011;3276;48.490;9.222;2023-08-12T07:39:54;7.67;;;6.97;;
6485;SDS011;3276;48.490;9.222;2023-08-12T07:42:19;9.33;;;5.73;;
6485;SDS011;3276;48.490;9.222;2023-08-12T07:44:45;7.00;;;6.30;;
6485;SDS011;3276;48.490;9.222;2023-08-12T07:47:11;6.33;;;5.83;;
6485;SDS011;3276;48.490;9.222;2023-08-12T07:49:37;7.67;;;6.97;;
6485;SDS011;3276;48.490;9.222;2023-08-12T07:52:03;6.50;;;6.00;;
6485;SDS011;3276;48.490;9.222;2023-08-12T07:54:29;6.63;;;6.13;;
6485;SDS011;3276;48.490;9.222;2023-08-12T07:56:54;7.10;;;6.50;;
6485;SDS011;3276;48.490;9.222;2023-08-12T07:59:20;8.73;;;6.80;;
6485;SDS011;3276;48.490;9.222;2023-08-12T08:01:46;7.53;;;6.93;;
6485;SDS011;3276;48.490;9.222;2023-08-12T08:04:11;6.23;;;5.83;;
6485;SDS011;3276;48.490;9.222;2023-08-12T08:06:37;5.40;;;5.00;;
6485;SDS011;3276;48.490;9.222;2023-08-12T08:09:03;5.83;;;5.43;;
6485;SDS011;3276;48.490;9.222;2023-08-12T08:11:29;6.47;;;5.97;;
6485;SDS011;3276;48.490;9.222;2023-08-12T08:13:55;6.40;;;5.80;;
6485;SDS011;3276;48.490;9.222;2023-08-12T08:16:22;6.00;;;5.60;;
6485;SDS011;3276;48.490;9.222;2023-08-12T08:18:47;6.60;;;6.10;;
6485;SDS011;3276;48.490;9.222;2023-08-12T08:21:13;6.60;;;5.20;;
6485;SDS011;3276;48.490;9.222;2023-08-12T08:23:40;7.07;;;5.97;;
6485;SDS011;3276;48.490;9.222;2023-08-12T08:26:06;6.27;;;5.87;;
6485;SDS011;3276;48.490;9.222;2023-08-12T08:28:32;6.30;;;5.90;;
6485;SDS011;3276;48.490;9.222;2023-08-12T08:30:58;7.30;;;6.70;;
6485;SDS011;3276;48.490;9.222;2023-08-12T08:33:24;6.90;;;6.40;;
6485;SDS011;3276;48.490;9.222;2023-08-12T08:35:50;6.97;;;6.47;;
6485;SDS011;3276;48.490;9.222;2023-08-12T08:38:16;6.43;;;5.93;;
6485;SDS011;3276;48.490;9.222;2023-08-12T08:40:42;7.90;;;7.10;;
6485;SDS011;3276;48.490;9.222;2023-08-12T08:43:07;6.50;;;6.00;;
6485;SDS011;3276;48.490;9.222;2023-08-12T08:45:34;6.10;;;5.50;;
6485;SDS011;3276;48.490;9.222;2023-08-12T08:48:00;6.43;;;5.93;;
6485;SDS011;3276;48.490;9.222;2023-08-12T08:50:30;6.20;;;5.57;;
6485;SDS011;3276;48.490;9.222;2023-08-12T08:52:56;6.70;;;6.10;;
6485;SDS011;3276;48.490;9.222;2023-08-12T08:55:22;5.97;;;5.57;;
6485;SDS011;3276;48.490;9.222;2023-08-12T08:57:48;7.67;;;6.00;;
6485;SDS011;3276;48.490;9.222;2023-08-12T09:00:17;6.40;;;5.90;;
6485;SDS011;3276;48.490;9.222;2023-08-12T09:02:44;7.00;;;6.30;;
6485;SDS011;3276;48.490;9.222;2023-08-12T09:05:13;10.00;;;5.17;;
6485;SDS011;3276;48.490;9.222;2023-08-12T09:07:40;5.37;;;4.97;;
6485;SDS011;3276;48.490;9.222;2023-08-12T09:10:07;5.97;;;5.57;;
6485;SDS011;3276;48.490;9.222;2023-08-12T09:12:33;4.70;;;4.30;;
6485;SDS011;3276;48.490;9.222;2023-08-12T09:14:59;5.60;;;5.10;;
6485;SDS011;3276;48.490;9.222;2023-08-12T09:17:25;5.57;;;5.17;;
6485;SDS011;3276;48.490;9.222;2023-08-12T09:19:51;5.90;;;5.40;;
6485;SDS011;3276;48.490;9.222;2023-08-12T09:22:17;5.53;;;4.83;;
6485;SDS011;3276;48.490;9.222;2023-08-12T09:24:43;5.97;;;5.47;;
6485;SDS011;3276;48.490;9.222;2023-08-12T09:27:09;5.00;;;4.60;;
6485;SDS011;3276;48.490;9.222;2023-08-12T09:29:35;7.10;;;5.00;;
6485;SDS011;3276;48.490;9.222;2023-08-12T09:32:17;5.63;;;5.23;;
6485;SDS011;3276;48.490;9.222;2023-08-12T09:34:47;4.60;;;4.20;;
6485;SDS011;3276;48.490;9.222;2023-08-12T09:37:14;5.27;;;4.47;;
6485;SDS011;3276;48.490;9.222;2023-08-12T09:39:41;5.53;;;5.13;;
6485;SDS011;3276;48.490;9.222;2023-08-12T09:42:07;5.50;;;5.00;;
6485;SDS011;3276;48.490;9.222;2023-08-12T09:44:36;5.60;;;5.10;;
6485;SDS011;3276;48.490;9.222;2023-08-12T09:47:02;5.80;;;5.03;;
6485;SDS011;3276;48.490;9.222;2023-08-12T09:49:28;4.57;;;4.27;;
6485;SDS011;3276;48.490;9.222;2023-08-12T09:51:54;5.30;;;4.80;;
6485;SDS011;3276;48.490;9.222;2023-08-12T09:54:21;5.30;;;4.90;;
6485;SDS011;3276;48.490;9.222;2023-08-12T09:56:47;5.67;;;5.17;;
6485;SDS011;3276;48.490;9.222;2023-08-12T09:59:16;5.20;;;4.80;;
6485;SDS011;3276;48.490;9.222;2023-08-12T10:01:47;6.23;;;5.50;;
6485;SDS011;3276;48.490;9.222;2023-08-12T10:04:14;6.23;;;4.70;;
6485;SDS011;3276;48.490;9.222;2023-08-12T10:06:41;5.30;;;4.43;;
6485;SDS011;3276;48.490;9.222;2023-08-12T10:09:08;9.03;;;5.80;;
6485;SDS011;3276;48.490;9.222;2023-08-12T10:11:36;5.27;;;4.87;;
6485;SDS011;3276;48.490;9.222;2023-08-12T10:14:03;5.70;;;4.40;;
6485;SDS011;3276;48.490;9.222;2023-08-12T10:16:29;6.10;;;5.60;;
6485;SDS011;3276;48.490;9.222;2023-08-12T10:18:55;5.90;;;5.00;;
6485;SDS011;3276;48.490;9.222;2023-08-12T10:21:22;5.93;;;5.43;;
6485;SDS011;3276;48.490;9.222;2023-08-12T10:23:49;5.97;;;5.57;;
6485;SDS011;3276;48.490;9.222;2023-08-12T10:26:16;5.33;;;4.90;;
6485;SDS011;3276;48.490;9.222;2023-08-12T10:28:43;4.80;;;4.40;;
6485;SDS011;3276;48.490;9.222;2023-08-12T10:31:10;5.27;;;4.87;;
6485;SDS011;3276;48.490;9.222;2023-08-12T10:33:37;5.13;;;4.73;;
6485;SDS011;3276;48.490;9.222;2023-08-12T10:36:03;5.97;;;5.57;;
6485;SDS011;3276;48.490;9.222;2023-08-12T10:38:30;5.10;;;4.67;;
6485;SDS011;3276;48.490;9.222;2023-08-12T10:44:00;6.83;;;6.03;;
6485;SDS011;3276;48.490;9.222;2023-08-12T10:46:32;5.70;;;5.27;;
6485;SDS011;3276;48.490;9.222;2023-08-12T10:49:03;5.60;;;5.20;;
6485;SDS011;3276;48.490;9.222;2023-08-12T10:59:50;5.60;;;5.10;;
6485;SDS011;3276;48.490;9.222;2023-08-12T11:02:20;4.63;;;4.23;;
6485;SDS011;3276;48.490;9.222;2023-08-12T11:05:07;5.10;;;4.70;;
6485;SDS011;3276;48.490;9.222;2023-08-12T11:10:10;4.73;;;4.43;;
6485;SDS011;3276;48.490;9.222;2023-08-12T11:15:28;5.60;;;5.10;;
6485;SDS011;3276;48.490;9.222;2023-08-12T11:18:07;5.57;;;5.07;;
6485;SDS011;3276;48.490;9.222;2023-08-12T11:20:43;6.37;;;4.70;;
6485;SDS011;3276;48.490;9.222;2023-08-12T11:23:09;5.37;;;4.67;;
6485;SDS011;3276;48.490;9.222;2023-08-12T11:25:36;4.87;;;4.57;;
6485;SDS011;3276;48.490;9.222;2023-08-12T11:28:03;4.93;;;4.50;;
6485;SDS011;3276;48.490;9.222;2023-08-12T11:30:30;4.30;;;4.00;;
6485;SDS011;3276;48.490;9.222;2023-08-12T11:32:55;11.50;;;4.60;;
6485;SDS011;3276;48.490;9.222;2023-08-12T11:35:22;4.97;;;4.57;;
6485;SDS011;3276;48.490;9.222;2023-08-12T11:37:50;5.40;;;4.40;;
6485;SDS011;3276;48.490;9.222;2023-08-12T11:40:21;6.67;;;4.20;;
6485;SDS011;3276;48.490;9.222;2023-08-12T11:42:48;5.23;;;4.73;;
6485;SDS011;3276;48.490;9.222;2023-08-12T11:45:16;7.20;;;4.57;;
6485;SDS011;3276;48.490;9.222;2023-08-12T11:47:45;5.60;;;5.10;;
6485;SDS011;3276;48.490;9.222;2023-08-12T11:50:18;5.67;;;4.40;;
6485;SDS011;3276;48.490;9.222;2023-08-12T11:52:45;5.27;;;4.87;;
6485;SDS011;3276;48.490;9.222;2023-08-12T11:55:11;5.30;;;4.80;;
6485;SDS011;3276;48.490;9.222;2023-08-12T11:57:39;5.13;;;4.30;;
6485;SDS011;3276;48.490;9.222;2023-08-12T12:00:06;5.17;;;4.37;;
6485;SDS011;3276;48.490;9.222;2023-08-12T12:02:46;4.40;;;4.10;;
6485;SDS011;3276;48.490;9.222;2023-08-12T12:05:16;5.10;;;4.73;;
6485;SDS011;3276;48.490;9.222;2023-08-12T12:07:42;5.00;;;4.60;;
6485;SDS011;3276;48.490;9.222;2023-08-12T12:10:12;5.63;;;4.47;;
6485;SDS011;3276;48.490;9.222;2023-08-12T12:12:40;6.70;;;4.30;;
6485;SDS011;3276;48.490;9.222;2023-08-12T12:15:06;5.23;;;4.57;;
6485;SDS011;3276;48.490;9.222;2023-08-12T12:17:32;5.03;;;4.63;;
6485;SDS011;3276;48.490;9.222;2023-08-12T12:20:03;4.70;;;4.30;;
6485;SDS011;3276;48.490;9.222;2023-08-12T12:22:30;4.57;;;4.17;;
6485;SDS011;3276;48.490;9.222;2023-08-12T12:24:58;4.60;;;4.30;;
6485;SDS011;3276;48.490;9.222;2023-08-12T12:27:24;4.30;;;4.00;;
6485;SDS011;3276;48.490;9.222;2023-08-12T12:29:51;5.10;;;4.60;;
6485;SDS011;3276;48.490;9.222;2023-08-12T12:32:20;4.80;;;4.50;;
6485;SDS011;3276;48.490;9.222;2023-08-12T12:34:46;6.90;;;4.40;;
6485;SDS011;3276;48.490;9.222;2023-08-12T12:37:15;4.83;;;4.30;;
6485;SDS011;3276;48.490;9.222;2023-08-12T12:39:41;4.80;;;4.30;;
6485;SDS011;3276;48.490;9.222;2023-08-12T12:42:06;14.53;;;4.27;;
6485;SDS011;3276;48.490;9.222;2023-08-12T12:44:32;5.10;;;4.67;;
6485;SDS011;3276;48.490;9.222;2023-08-12T12:46:58;5.33;;;4.03;;
6485;SDS011;3276;48.490;9.222;2023-08-12T12:49:23;7.50;;;4.03;;
6485;SDS011;3276;48.490;9.222;2023-08-12T12:51:49;6.03;;;3.90;;
6485;SDS011;3276;48.490;9.222;2023-08-12T12:54:14;5.97;;;3.23;;
6485;SDS011;3276;48.490;9.222;2023-08-12T12:56:40;6.70;;;3.90;;
6485;SDS011;3276;48.490;9.222;2023-08-12T12:59:09;8.47;;;4.37;;
6485;SDS011;3276;48.490;9.222;2023-08-12T13:01:35;5.50;;;4.30;;
6485;SDS011;3276;48.490;9.222;2023-08-12T13:04:01;5.17;;;3.07;;
6485;SDS011;3276;48.490;9.222;2023-08-12T13:06:27;3.70;;;3.30;;
6485;SDS011;3276;48.490;9.222;2023-08-12T13:08:53;3.90;;;2.80;;
6485;SDS011;3276;48.490;9.222;2023-08-12T13:11:19;5.20;;;3.40;;
6485;SDS011;3276;48.490;9.222;2023-08-12T13:13:44;5.53;;;3.33;;
6485;SDS011;3276;48.490;9.222;2023-08-12T13:16:10;4.73;;;3.70;;
6485;SDS011;3276;48.490;9.222;2023-08-12T13:18:35;7.17;;;5.30;;
6485;SDS011;3276;48.490;9.222;2023-08-12T13:21:02;6.43;;;3.60;;
6485;SDS011;3276;48.490;9.222;2023-08-12T13:23:28;2.80;;;2.50;;
6485;SDS011;3276;48.490;9.222;2023-08-12T13:25:53;7.83;;;3.67;;
6485;SDS011;3276;48.490;9.222;2023-08-12T13:28:19;7.27;;;4.30;;
6485;SDS011;3276;48.490;9.222;2023-08-12T13:30:45;6.27;;;4.20;;
6485;SDS011;3276;48.490;9.222;2023-08-12T13:33:10;7.30;;;4.97;;
6485;SDS011;3276;48.490;9.222;2023-08-12T13:35:36;5.70;;;4.40;;
6485;SDS011;3276;48.490;9.222;2023-08-12T13:38:02;6.10;;;4.87;;
6485;SDS011;3276;48.490;9.222;2023-08-12T13:40:28;5.20;;;4.17;;
6485;SDS011;3276;48.490;9.222;2023-08-12T13:42:53;5.13;;;4.07;;
6485;SDS011;3276;48.490;9.222;2023-08-12T13:45:19;5.80;;;4.00;;
6485;SDS011;3276;48.490;9.222;2023-08-12T13:47:45;5.80;;;2.97;;
6485;SDS011;3276;48.490;9.222;2023-08-12T13:50:11;7.17;;;3.27;;
6485;SDS011;3276;48.490;9.222;2023-08-12T13:52:38;8.40;;;5.40;;
6485;SDS011;3276;48.490;9.222;2023-08-12T13:55:04;5.63;;;4.17;;
6485;SDS011;3276;48.490;9.222;2023-08-12T13:57:30;4.67;;;3.80;;
6485;SDS011;3276;48.490;9.222;2023-08-12T13:59:56;6.30;;;4.27;;
6485;SDS011;3276;48.490;9.222;2023-08-12T14:02:21;6.63;;;4.47;;
6485;SDS011;3276;48.490;9.222;2023-08-12T14:04:47;4.90;;;4.10;;
6485;SDS011;3276;48.490;9.222;2023-08-12T14:07:13;4.53;;;3.40;;
6485;SDS011;3276;48.490;9.222;2023-08-12T14:09:38;4.87;;;3.20;;
6485;SDS011;3276;48.490;9.222;2023-08-12T14:12:04;3.70;;;3.30;;
6485;SDS011;3276;48.490;9.222;2023-08-12T14:14:33;3.40;;;2.67;;
6485;SDS011;3276;48.490;9.222;2023-08-12T14:16:58;3.73;;;2.27;;
6485;SDS011;3276;48.490;9.222;2023-08-12T14:19:24;4.20;;;2.53;;
6485;SDS011;3276;48.490;9.222;2023-08-12T14:21:49;2.30;;;2.10;;
6485;SDS011;3276;48.490;9.222;2023-08-12T14:24:15;6.70;;;4.00;;
6485;SDS011;3276;48.490;9.222;2023-08-12T14:26:40;2.30;;;2.10;;
6485;SDS011;3276;48.490;9.222;2023-08-12T14:29:06;3.00;;;2.53;;
6485;SDS011;3276;48.490;9.222;2023-08-12T14:31:32;3.57;;;2.27;;
6485;SDS011;3276;48.490;9.222;2023-08-12T14:34:03;3.93;;;2.73;;
6485;SDS011;3276;48.490;9.222;2023-08-12T14:36:29;4.77;;;2.40;;
6485;SDS011;3276;48.490;9.222;2023-08-12T14:38:54;3.67;;;2.70;;
6485;SDS011;3276;48.490;9.222;2023-08-12T14:41:20;6.87;;;2.70;;
6485;SDS011;3276;48.490;9.222;2023-08-12T14:43:46;2.70;;;2.37;;
6485;SDS011;3276;48.490;9.222;2023-08-12T14:46:11;5.53;;;2.93;;
6485;SDS011;3276;48.490;9.222;2023-08-12T14:48:37;4.07;;;2.93;;
6485;SDS011;3276;48.490;9.222;2023-08-12T14:51:03;3.83;;;2.80;;
6485;SDS011;3276;48.490;9.222;2023-08-12T14:53:28;6.50;;;3.33;;
6485;SDS011;3276;48.490;9.222;2023-08-12T14:55:54;4.67;;;3.50;;
6485;SDS011;3276;48.490;9.222;2023-08-12T14:58:20;4.37;;;3.90;;
6485;SDS011;3276;48.490;9.222;2023-08-12T15:00:48;3.73;;;3.03;;
6485;SDS011;3276;48.490;9.222;2023-08-12T15:03:14;4.40;;;3.43;;
6485;SDS011;3276;48.490;9.222;2023-08-12T15:05:40;4.20;;;2.90;;
6485;SDS011;3276;48.490;9.222;2023-08-12T15:08:06;3.60;;;3.17;;
6485;SDS011;3276;48.490;9.222;2023-08-12T15:10:32;4.00;;;2.97;;
6485;SDS011;3276;48.490;9.222;2023-08-12T15:12:58;5.50;;;3.90;;
6485;SDS011;3276;48.490;9.222;2023-08-12T15:15:24;3.40;;;3.00;;
6485;SDS011;3276;48.490;9.222;2023-08-12T15:17:49;3.37;;;2.80;;
6485;SDS011;3276;48.490;9.222;2023-08-12T15:20:15;4.07;;;2.90;;
6485;SDS011;3276;48.490;9.222;2023-08-12T15:22:40;4.10;;;3.47;;
6485;SDS011;3276;48.490;9.222;2023-08-12T15:25:06;3.30;;;3.00;;
6485;SDS011;3276;48.490;9.222;2023-08-12T15:27:33;4.37;;;3.40;;
6485;SDS011;3276;48.490;9.222;2023-08-12T15:29:59;6.00;;;3.40;;